createdAt,value
2024-03-04T00:01:33.104Z,70.05
2024-03-04T00:07:53.381Z,71.60
2024-03-04T00:13:59.390Z,74.88
2024-03-04T00:19:23.778Z,70.55
2024-03-04T00:21:59.572Z,74.15
2024-03-04T00:24:41.251Z,75.68
2024-03-04T00:27:17.631Z,74.05
2024-03-04T00:29:52.656Z,76.78
2024-03-04T00:35:21.330Z,72.53
2024-03-04T00:38:08.598Z,74.88
2024-03-04T00:41:09.607Z,71.40
2024-03-04T00:44:00.524Z,76.40
2024-03-04T00:46:35.216Z,76.15
2024-03-04T00:49:14.865Z,73.47
2024-03-04T00:51:49.583Z,71.25
2024-03-04T00:54:23.994Z,73.68
2024-03-04T00:56:59.664Z,72.18
2024-03-04T00:59:34.449Z,69.80
2024-03-04T01:02:14.193Z,74.53
2024-03-04T01:04:52.210Z,75.03
2024-03-04T01:07:28.981Z,74.53
2024-03-04T01:10:03.482Z,70.93
2024-03-04T01:12:38.405Z,74.20
2024-03-04T01:15:35.840Z,73.88
2024-03-04T01:18:34.338Z,70.55
2024-03-04T01:21:08.463Z,71.63
2024-03-04T01:23:42.846Z,70.90
2024-03-04T01:26:20.291Z,73.22
2024-03-04T01:28:54.830Z,71.22
2024-03-04T01:34:48.741Z,71.25
2024-03-04T01:37:23.318Z,72.13
2024-03-04T01:39:55.927Z,73.30
2024-03-04T01:42:28.223Z,72.88
2024-03-04T01:45:00.685Z,69.47
2024-03-04T01:47:35.250Z,72.20
2024-03-04T01:50:10.295Z,72.40
2024-03-04T01:52:42.758Z,71.10
2024-03-04T01:55:16.487Z,73.22
2024-03-04T01:57:50.442Z,73.38
2024-03-04T02:00:24.701Z,72.20
2024-03-04T02:02:57.343Z,74.03
2024-03-04T02:05:30.127Z,70.85
2024-03-04T02:08:03.765Z,74.63
2024-03-04T02:10:36.252Z,72.32
2024-03-04T02:13:08.937Z,72.90
2024-03-04T02:15:41.461Z,70.72
2024-03-04T02:18:17.174Z,71.85
2024-03-04T02:20:55.933Z,71.65
2024-03-04T02:23:28.718Z,73.10
2024-03-04T02:26:01.343Z,76.03
2024-03-04T02:28:34.735Z,73.75
2024-03-04T02:31:07.653Z,74.50
2024-03-04T02:33:45.120Z,75.82
2024-03-04T02:36:19.098Z,73.63
2024-03-04T02:38:53.771Z,72.70
2024-03-04T02:41:29.244Z,75.55
2024-03-04T02:44:01.473Z,72.55
2024-03-04T02:46:33.777Z,73.38
2024-03-04T02:49:06.317Z,76.20
2024-03-04T02:51:38.632Z,75.88
2024-03-04T02:54:11.374Z,76.70
2024-03-04T02:56:44.260Z,77.43
2024-03-04T02:59:16.856Z,72.78
2024-03-04T03:01:50.123Z,74.35
2024-03-04T03:04:22.563Z,73.47
2024-03-04T03:06:54.883Z,74.72
2024-03-04T03:09:27.195Z,72.47
2024-03-04T03:12:00.934Z,73.68
2024-03-04T03:14:37.084Z,74.60
2024-03-04T03:17:09.642Z,73.45
2024-03-04T03:19:42.047Z,77.28
2024-03-04T03:22:14.629Z,75.78
2024-03-04T03:24:47.761Z,76.03
2024-03-04T03:27:20.120Z,73.03
2024-03-04T03:29:52.406Z,73.90
2024-03-04T03:32:24.812Z,74.90
2024-03-04T03:34:57.130Z,76.32
2024-03-04T03:37:29.655Z,79.95
2024-03-04T03:40:04.207Z,78.70
2024-03-04T03:42:36.883Z,80.88
2024-03-04T03:45:10.047Z,77.03
2024-03-04T03:47:42.974Z,76.80
2024-03-04T03:50:15.425Z,79.82
2024-03-04T03:52:47.838Z,76.75
2024-03-04T03:55:20.309Z,73.47
2024-03-04T03:57:58.154Z,74.50
2024-03-04T04:00:33.552Z,72.13
2024-03-04T04:03:06.297Z,77.80
2024-03-04T04:05:38.648Z,78.55
2024-03-04T04:08:10.983Z,74.88
2024-03-04T04:10:43.966Z,74.63
2024-03-04T04:13:16.997Z,80.53
2024-03-04T04:15:51.167Z,82.30
2024-03-04T04:18:24.165Z,77.88
2024-03-04T04:20:56.427Z,74.60
2024-03-04T04:23:28.851Z,70.93
2024-03-04T04:26:01.728Z,76.55
2024-03-04T04:28:34.185Z,80.82
2024-03-04T04:31:07.128Z,80.20
2024-03-04T04:33:39.427Z,75.88
2024-03-04T04:36:11.707Z,81.40
2024-03-04T04:38:45.663Z,83.05
2024-03-04T04:41:18.097Z,83.68
2024-03-04T04:43:50.508Z,78.57
2024-03-04T04:46:22.827Z,80.03
2024-03-04T04:48:55.159Z,84.50
2024-03-04T04:51:27.433Z,86.38
2024-03-04T04:54:00.113Z,84.00
2024-03-04T04:56:32.475Z,80.55
2024-03-04T04:59:04.836Z,81.45
2024-03-04T05:01:37.627Z,79.38
2024-03-04T05:04:31.220Z,83.60
2024-03-04T05:07:02.505Z,82.10
2024-03-04T05:09:35.073Z,80.03
2024-03-04T05:12:08.038Z,84.40
2024-03-04T05:14:40.517Z,81.97
2024-03-04T05:17:12.951Z,82.35
2024-03-04T05:19:45.966Z,85.70
2024-03-04T05:22:18.316Z,84.90
2024-03-04T05:24:50.824Z,81.43
2024-03-04T05:27:23.078Z,79.93
2024-03-04T05:29:56.516Z,84.88
2024-03-04T05:32:28.892Z,83.53
2024-03-04T05:35:01.298Z,83.05
2024-03-04T05:37:33.694Z,77.20
2024-03-04T05:40:11.446Z,83.07
2024-03-04T05:42:43.840Z,83.25
2024-03-04T05:45:16.280Z,82.13
2024-03-04T05:47:48.629Z,84.40
2024-03-04T05:50:21.070Z,81.03
2024-03-04T05:52:53.436Z,85.75
2024-03-04T05:55:26.756Z,82.60
2024-03-04T05:57:59.147Z,84.35
2024-03-04T06:00:33.692Z,84.10
2024-03-04T06:03:06.065Z,86.40
2024-03-04T06:05:38.409Z,80.70
2024-03-04T06:08:10.726Z,87.13
2024-03-04T06:10:43.723Z,83.53
2024-03-04T06:13:16.353Z,86.43
2024-03-04T06:15:48.717Z,84.82
2024-03-04T06:18:21.443Z,87.32
2024-03-04T06:23:42.527Z,82.35
2024-03-04T06:26:20.181Z,87.95
2024-03-04T06:28:55.323Z,92.28
2024-03-04T06:31:35.346Z,91.97
2024-03-04T06:34:23.830Z,90.82
2024-03-04T06:37:00.206Z,90.68
2024-03-04T06:39:59.618Z,84.97
2024-03-04T06:43:23.966Z,87.07
2024-03-04T06:46:01.600Z,88.82
2024-03-04T06:48:39.918Z,93.10
2024-03-04T06:51:26.040Z,89.03
2024-03-04T06:56:42.270Z,90.60
2024-03-04T06:59:19.782Z,89.28
2024-03-04T07:02:00.488Z,90.75
2024-03-04T07:08:04.644Z,89.85
2024-03-04T07:10:39.363Z,88.72
2024-03-04T07:13:16.030Z,88.47
2024-03-04T07:27:13.615Z,88.93
2024-03-04T07:30:09.749Z,87.78
2024-03-04T07:32:58.336Z,86.90
2024-03-04T07:39:36.270Z,79.47
2024-03-04T07:42:45.386Z,76.43
2024-03-04T07:46:01.477Z,82.47
2024-03-04T07:48:39.947Z,81.85
2024-03-04T07:51:15.860Z,85.38
2024-03-04T07:53:51.000Z,80.18
2024-03-04T07:56:25.926Z,83.20
2024-03-04T07:59:05.724Z,82.45
2024-03-04T08:05:12.544Z,83.85
2024-03-04T08:07:48.013Z,84.07
2024-03-04T08:10:31.728Z,77.80
2024-03-04T08:16:08.305Z,77.18
2024-03-04T08:18:52.973Z,77.65
2024-03-04T08:21:31.300Z,80.28
2024-03-04T08:24:06.450Z,81.00
2024-03-04T08:29:47.786Z,80.90
2024-03-04T08:36:26.039Z,75.00
2024-03-04T08:42:29.194Z,72.80
2024-03-04T08:45:28.935Z,73.75
2024-03-04T09:10:34.022Z,74.25
2024-03-04T09:22:50.361Z,68.45
2024-03-04T09:37:03.850Z,70.40
2024-03-04T09:44:40.171Z,69.50
2024-03-04T09:50:15.005Z,64.25
2024-03-04T09:53:11.627Z,68.28
2024-03-04T09:58:09.573Z,67.78
2024-03-04T10:01:36.823Z,66.28
2024-03-04T10:08:31.916Z,66.00
2024-03-04T10:15:24.345Z,62.63
2024-03-04T10:18:13.673Z,65.85
2024-03-04T10:20:46.272Z,65.30
2024-03-04T10:23:19.586Z,64.68
2024-03-04T10:26:11.467Z,63.28
2024-03-04T10:28:56.968Z,59.40
2024-03-04T10:34:26.286Z,56.33
2024-03-04T10:41:48.218Z,53.10
2024-03-04T10:44:30.218Z,45.35
2024-03-04T11:31:32.860Z,55.90
2024-03-04T11:42:08.564Z,59.70
2024-03-04T11:45:38.510Z,62.58
2024-03-04T11:59:13.779Z,63.65
2024-03-04T12:04:40.228Z,68.30
2024-03-04T12:07:24.587Z,68.70
2024-03-04T12:12:54.911Z,69.70
2024-03-04T12:18:12.429Z,71.78
2024-03-04T12:20:53.339Z,71.55
2024-03-04T12:23:42.792Z,74.90
2024-03-04T12:26:19.654Z,74.55
2024-03-04T12:29:09.962Z,78.63
2024-03-04T12:31:48.817Z,73.13
2024-03-04T12:40:59.837Z,70.75
2024-03-04T12:43:36.135Z,75.35
2024-03-04T12:49:38.026Z,76.57
2024-03-04T12:54:45.494Z,72.97
2024-03-04T12:57:17.846Z,76.28
2024-03-04T12:59:51.935Z,74.65
2024-03-04T13:05:13.101Z,76.43
2024-03-04T13:10:27.398Z,71.90
2024-03-04T13:15:45.677Z,71.90
2024-03-04T13:20:51.313Z,74.57
2024-03-04T13:23:23.818Z,75.25
2024-03-04T13:25:56.822Z,76.78
2024-03-04T13:28:29.558Z,74.82
2024-03-04T13:31:02.288Z,73.88
2024-03-04T13:33:34.856Z,78.57
2024-03-04T13:36:08.265Z,71.65
2024-03-04T13:38:41.094Z,70.75
2024-03-04T13:41:13.781Z,79.60
2024-03-04T13:43:46.447Z,75.05
2024-03-04T13:46:19.201Z,78.45
2024-03-04T13:48:51.883Z,74.32
2024-03-04T13:51:24.631Z,74.82
2024-03-04T13:53:57.299Z,75.18
2024-03-04T13:56:30.071Z,77.03
2024-03-04T13:59:07.582Z,77.25
2024-03-04T14:01:40.560Z,82.45
2024-03-04T14:04:13.536Z,92.03
2024-03-04T14:06:46.397Z,82.30
2024-03-04T14:09:20.803Z,82.97
2024-03-04T14:11:53.634Z,86.80
2024-03-04T14:14:26.584Z,84.90
2024-03-04T14:16:59.908Z,88.97
2024-03-04T14:19:34.109Z,86.70
2024-03-04T14:22:10.336Z,80.43
2024-03-04T14:27:24.012Z,81.85
2024-03-04T14:30:00.513Z,76.88
2024-03-04T14:32:33.690Z,74.75
2024-03-04T14:35:06.891Z,77.78
2024-03-04T14:37:39.996Z,80.13
2024-03-04T14:40:17.679Z,73.63
2024-03-04T14:42:50.432Z,74.25
2024-03-04T14:45:24.879Z,73.10
2024-03-04T14:47:58.353Z,69.72
2024-03-04T14:50:31.269Z,72.80
2024-03-04T14:53:04.191Z,75.00
2024-03-04T14:55:36.828Z,72.03
2024-03-04T14:58:09.461Z,73.18
2024-03-04T15:00:42.196Z,74.25
2024-03-04T15:03:14.999Z,70.88
2024-03-04T15:05:47.861Z,67.18
2024-03-04T15:08:20.466Z,73.53
2024-03-04T15:10:53.401Z,72.13
2024-03-04T15:13:26.181Z,70.47
2024-03-04T15:15:59.036Z,67.78
2024-03-04T15:18:35.478Z,73.50
2024-03-04T15:21:08.600Z,71.55
2024-03-04T15:23:41.454Z,73.97
2024-03-04T15:26:14.066Z,75.40
2024-03-04T15:28:48.758Z,75.47
2024-03-04T15:31:21.498Z,77.45
2024-03-04T15:33:54.086Z,80.85
2024-03-04T15:36:32.696Z,79.25
2024-03-04T15:39:12.459Z,80.90
2024-03-04T15:41:46.254Z,76.65
2024-03-04T15:44:19.055Z,78.75
2024-03-04T15:46:54.054Z,83.63
2024-03-04T15:49:41.708Z,80.03
2024-03-04T15:52:14.256Z,79.22
2024-03-04T15:54:46.829Z,80.72
2024-03-04T15:57:19.374Z,80.18
2024-03-04T15:59:52.269Z,78.78
2024-03-04T16:02:24.878Z,78.85
2024-03-04T16:04:57.563Z,73.88
2024-03-04T16:07:30.594Z,76.28
2024-03-04T16:10:04.452Z,74.82
2024-03-04T16:12:39.040Z,74.93
2024-03-04T16:15:11.552Z,79.20
2024-03-04T16:17:43.868Z,74.28
2024-03-04T16:20:20.474Z,73.32
2024-03-04T16:22:53.449Z,79.28
2024-03-04T16:25:27.904Z,76.00
2024-03-04T16:28:05.351Z,81.28
2024-03-04T16:30:40.109Z,80.38
2024-03-04T16:33:12.621Z,84.47
2024-03-04T16:35:45.018Z,82.28
2024-03-04T16:38:19.633Z,84.70
2024-03-04T16:40:54.523Z,86.13
2024-03-04T16:43:26.902Z,80.65
2024-03-04T16:46:04.745Z,77.07
2024-03-04T16:48:37.024Z,83.28
2024-03-04T16:51:17.060Z,83.60
2024-03-04T16:53:49.560Z,83.15
2024-03-04T16:56:23.813Z,81.40
2024-03-04T16:58:56.413Z,84.68
2024-03-04T17:01:35.673Z,81.80
2024-03-04T17:04:13.248Z,84.90
2024-03-04T17:06:46.347Z,80.75
2024-03-04T17:09:19.555Z,83.38
2024-03-04T17:11:52.187Z,80.18
2024-03-04T17:14:26.812Z,76.75
2024-03-04T17:17:09.370Z,78.07
2024-03-04T17:19:42.751Z,79.13
2024-03-04T17:22:15.906Z,76.47
2024-03-04T17:24:48.923Z,81.25
2024-03-04T17:27:21.289Z,78.55
2024-03-04T17:29:53.553Z,80.88
2024-03-04T17:32:26.317Z,83.97
2024-03-04T17:34:58.897Z,77.63
2024-03-04T17:40:17.108Z,78.35
2024-03-04T17:42:56.792Z,76.20
2024-03-04T17:45:29.924Z,80.72
2024-03-04T17:48:02.559Z,76.78
2024-03-04T17:50:35.284Z,79.10
2024-03-04T17:53:07.591Z,80.30
2024-03-04T17:55:42.031Z,80.88
2024-03-04T17:58:17.453Z,80.22
2024-03-04T18:00:50.760Z,83.13
2024-03-04T18:03:23.222Z,83.05
2024-03-04T18:05:57.281Z,81.40
2024-03-04T18:08:30.796Z,83.32
2024-03-04T18:11:04.015Z,79.95
2024-03-04T18:13:37.185Z,83.78
2024-03-04T18:16:15.542Z,86.97
2024-03-04T18:18:53.058Z,81.82
2024-03-04T18:21:26.184Z,80.13
2024-03-04T18:23:58.468Z,82.57
2024-03-04T18:26:31.020Z,81.07
2024-03-04T18:29:03.785Z,79.70
2024-03-04T18:31:41.188Z,81.60
2024-03-04T18:34:22.069Z,86.38
2024-03-04T18:37:06.330Z,78.80
2024-03-04T18:40:06.477Z,83.00
2024-03-04T18:42:40.327Z,85.75
2024-03-04T18:45:13.615Z,84.07
2024-03-04T18:47:46.707Z,88.22
2024-03-04T18:50:25.053Z,83.18
2024-03-04T18:53:00.070Z,82.85
2024-03-04T18:55:34.456Z,84.28
2024-03-04T18:58:11.315Z,83.63
2024-03-04T19:00:44.297Z,87.32
2024-03-04T19:03:17.113Z,88.72
2024-03-04T19:05:50.308Z,89.35
2024-03-04T19:08:22.813Z,92.68
2024-03-04T19:11:04.878Z,85.82
2024-03-04T19:13:41.140Z,90.28
2024-03-04T19:16:13.449Z,85.82
2024-03-04T19:18:46.639Z,91.80
2024-03-04T19:21:19.603Z,93.55
2024-03-04T19:23:51.980Z,91.75
2024-03-04T19:26:24.257Z,90.65
2024-03-04T19:28:56.715Z,91.60
2024-03-04T19:31:29.614Z,91.35
2024-03-04T19:34:04.945Z,90.85
2024-03-04T19:36:43.382Z,88.57
2024-03-04T19:39:16.085Z,92.43
2024-03-04T19:41:49.315Z,90.47
2024-03-04T19:44:21.552Z,93.15
2024-03-04T19:46:53.854Z,89.25
2024-03-04T19:49:26.255Z,88.35
2024-03-04T19:51:58.691Z,87.25
2024-03-04T19:54:31.028Z,85.30
2024-03-04T19:57:04.073Z,85.80
2024-03-04T19:59:36.365Z,83.57
2024-03-04T20:02:08.656Z,86.22
2024-03-04T20:04:43.520Z,86.35
2024-03-04T20:07:18.637Z,85.00
2024-03-04T20:09:53.562Z,85.63
2024-03-04T20:12:27.285Z,84.32
2024-03-04T20:15:00.242Z,84.80
2024-03-04T20:17:32.763Z,93.85
2024-03-04T20:20:05.950Z,82.20
2024-03-04T20:22:38.157Z,82.10
2024-03-04T20:25:11.160Z,83.78
2024-03-04T20:27:43.464Z,86.50
2024-03-04T20:30:15.714Z,84.13
2024-03-04T20:32:47.898Z,86.97
2024-03-04T20:35:21.256Z,85.45
2024-03-04T20:37:53.734Z,84.82
2024-03-04T20:40:26.239Z,81.95
2024-03-04T20:42:59.055Z,83.68
2024-03-04T20:45:32.124Z,82.88
2024-03-04T20:48:06.228Z,84.82
2024-03-04T20:50:39.834Z,82.72
2024-03-04T20:53:12.116Z,84.80
2024-03-04T20:55:45.478Z,82.20
2024-03-04T21:06:31.856Z,80.40
2024-03-04T21:09:04.516Z,81.72
2024-03-04T21:11:37.029Z,80.45
2024-03-04T21:14:09.422Z,79.38
2024-03-04T21:16:43.337Z,80.18
2024-03-04T21:19:15.732Z,77.90
2024-03-04T21:21:48.006Z,76.25
2024-03-04T21:24:20.273Z,76.78
2024-03-04T21:26:53.733Z,78.70
2024-03-04T21:29:25.967Z,80.88
2024-03-04T21:32:00.297Z,77.68
2024-03-04T21:34:32.929Z,75.38
2024-03-04T21:37:09.646Z,73.45
2024-03-04T21:44:00.374Z,69.82
2024-03-04T21:46:32.665Z,68.63
2024-03-04T21:49:06.165Z,66.00
2024-03-04T21:51:42.760Z,66.43
2024-03-04T21:54:15.571Z,66.75
2024-03-04T21:56:48.056Z,61.97
2024-03-04T21:59:20.431Z,62.85
2024-03-04T22:01:53.051Z,65.55
2024-03-04T22:04:25.656Z,63.72
2024-03-04T22:06:58.111Z,60.20
2024-03-04T22:09:31.211Z,60.72
2024-03-04T22:12:04.000Z,58.30
2024-03-04T22:14:36.468Z,57.60
2024-03-04T22:17:11.739Z,57.55
2024-03-04T22:19:44.123Z,60.20
2024-03-04T22:22:16.619Z,58.65
2024-03-04T22:24:48.935Z,58.50
2024-03-04T22:27:21.794Z,57.28
2024-03-04T22:29:54.546Z,56.17
2024-03-04T22:32:28.983Z,55.70
2024-03-04T22:35:02.195Z,57.25
2024-03-04T22:37:35.103Z,53.90
2024-03-04T22:40:12.991Z,57.55
2024-03-04T22:42:45.414Z,54.53
2024-03-04T22:45:17.849Z,54.92
2024-03-04T22:47:51.146Z,55.45
2024-03-04T22:50:23.741Z,56.80
2024-03-04T22:52:56.286Z,55.72
2024-03-04T22:55:28.690Z,57.53
2024-03-04T22:58:01.143Z,55.80
2024-03-04T23:00:39.901Z,55.63
2024-03-04T23:03:12.419Z,52.08
2024-03-04T23:05:45.575Z,56.67
2024-03-04T23:08:17.903Z,53.95
2024-03-04T23:13:45.511Z,57.35
2024-03-04T23:18:50.302Z,55.17
2024-03-04T23:24:03.138Z,54.67
2024-03-04T23:26:35.860Z,55.58
2024-03-04T23:29:08.213Z,54.05
2024-03-04T23:31:40.508Z,53.97
2024-03-04T23:34:13.138Z,52.00
2024-03-04T23:36:51.374Z,56.08
2024-03-04T23:42:10.622Z,54.55
2024-03-04T23:44:43.163Z,55.03
2024-03-04T23:47:15.517Z,51.28
2024-03-04T23:49:47.958Z,54.03
2024-03-04T23:52:21.736Z,52.88
2024-03-04T23:54:57.245Z,53.55
2024-03-04T23:57:30.330Z,52.15
